Time,TemperatureF,DewpointF,PressureIn,WindDirection,WindDirectionDegrees,WindSpeedMPH,WindSpeedGustMPH,Humidity,HourlyPrecipIn,Conditions,Clouds,dailyrainin,SoftwareType,DateUTC
2014-09-17 00:00:00,75.0,46.0,-100.00,North,4,6.0,-999.0,35,0.00,,,-99.99,,2014-09-17 07:00:00,
2014-09-17 00:42:00,75.0,46.0,-100.00,North,4,6.0,-999.0,35,0.00,,,-99.99,,2014-09-17 07:42:00,
2014-09-17 00:53:00,75.0,46.0,-100.00,North,4,6.0,-999.0,35,0.00,,,-99.99,,2014-09-17 07:53:00,
2014-09-17 01:00:00,74.0,45.0,-100.00,NNE,33,3.0,-999.0,35,0.00,,,-99.99,,2014-09-17 08:00:00,
2014-09-17 01:23:00,74.0,-99.9,-100.00,NNE,33,3.0,-999.0,35,0.00,,,-99.99,,2014-09-17 08:23:00,
2014-09-17 01:32:00,74.0,-99.9,-100.00,NNE,33,3.0,-999.0,35,0.00,,,-99.99,,2014-09-17 08:32:00,
2014-09-17 01:42:00,74.0,45.0,-100.00,NNE,33,3.0,-999.0,35,0.00,,,-99.99,,2014-09-17 08:42:00,
2014-09-17 01:53:00,74.0,45.0,-100.00,NNE,33,3.0,-999.0,35,0.00,,,-99.99,,2014-09-17 08:53:00,
2014-09-17 02:00:00,68.0,-99.9,-100.00,ENE,77,3.0,-999.0,41,0.00,,,-99.99,,2014-09-17 09:00:00,
2014-09-17 02:23:00,68.0,44.0,-100.00,ENE,77,3.0,-999.0,41,0.00,,,-99.99,,2014-09-17 09:23:00,
2014-09-17 02:34:00,68.0,44.0,-100.00,ENE,77,3.0,-999.0,41,0.00,,,-99.99,,2014-09-17 09:34:00,
2014-09-17 02:44:00,68.0,44.0,-100.00,ENE,77,3.0,-999.0,41,0.00,,,-99.99,,2014-09-17 09:44:00,
2014-09-17 02:55:00,68.0,-99.9,-100.00,ENE,77,3.0,-999.0,41,0.00,,,-99.99,,2014-09-17 09:55:00,
2014-09-17 03:00:00,66.0,-99.9,-100.00,NE,41,2.0,-999.0,45,0.00,,,-99.99,,2014-09-17 10:00:00,
2014-09-17 03:24:00,66.0,44.0,-100.00,NE,41,2.0,-999.0,45,0.00,,,-99.99,,2014-09-17 10:24:00,
2014-09-17 03:33:00,66.0,44.0,-100.00,NE,41,2.0,-999.0,45,0.00,,,-99.99,,2014-09-17 10:33:00,
2014-09-17 03:44:00,66.0,-99.9,-100.00,NE,41,2.0,-999.0,45,0.00,,,-99.99,,2014-09-17 10:44:00,
2014-09-17 03:53:00,66.0,-99.9,-100.00,NE,41,2.0,-999.0,45,0.00,,,-99.99,,2014-09-17 10:53:00,
2014-09-17 04:00:00,66.0,-99.9,-100.00,East,84,2.0,-999.0,45,0.00,,,-99.99,,2014-09-17 11:00:00,
2014-09-17 04:24:00,66.0,44.0,-100.00,East,84,2.0,-999.0,45,0.00,,,-99.99,,2014-09-17 11:24:00,
2014-09-17 04:33:00,66.0,44.0,-100.00,East,84,2.0,-999.0,45,0.00,,,-99.99,,2014-09-17 11:33:00,
2014-09-17 04:43:00,66.0,44.0,-100.00,East,84,2.0,-999.0,45,0.00,,,-99.99,,2014-09-17 11:43:00,
2014-09-17 04:53:00,66.0,-99.9,-100.00,East,84,2.0,-999.0,45,0.00,,,-99.99,,2014-09-17 11:53:00,
2014-09-17 05:00:00,66.0,-99.9,-100.00,ENE,69,2.0,-999.0,44,0.00,,,-99.99,,2014-09-17 12:00:00,
2014-09-17 05:22:00,66.0,43.0,-100.00,ENE,69,2.0,-999.0,44,0.00,,,-99.99,,2014-09-17 12:22:00,
2014-09-17 05:32:00,66.0,43.0,-100.00,ENE,69,2.0,-999.0,44,0.00,,,-99.99,,2014-09-17 12:32:00,
2014-09-17 05:42:00,66.0,43.0,-100.00,ENE,69,2.0,-999.0,44,0.00,,,-99.99,,2014-09-17 12:42:00,
2014-09-17 05:53:00,66.0,-99.9,-100.00,ENE,69,2.0,-999.0,44,0.00,,,-99.99,,2014-09-17 12:53:00,
2014-09-17 06:00:00,65.0,43.0,-100.00,East,94,3.0,-999.0,45,0.00,,,-99.99,,2014-09-17 13:00:00,
2014-09-17 06:23:00,65.0,43.0,-100.00,East,94,3.0,-999.0,45,0.00,,,-99.99,,2014-09-17 13:23:00,
2014-09-17 06:32:00,65.0,43.0,-100.00,East,94,3.0,-999.0,45,0.00,,,-99.99,,2014-09-17 13:32:00,
2014-09-17 06:42:00,65.0,43.0,-100.00,East,94,3.0,-999.0,45,0.00,,,-99.99,,2014-09-17 13:42:00,
2014-09-17 06:53:00,65.0,43.0,-100.00,East,94,3.0,-999.0,45,0.00,,,-99.99,,2014-09-17 13:53:00,
2014-09-17 10:00:00,82.0,45.0,-100.00,SW,234,5.0,-999.0,27,0.00,,,-99.99,,2014-09-17 17:00:00,
2014-09-17 10:24:00,82.0,45.0,-100.00,SW,234,5.0,-999.0,27,0.00,,,-99.99,,2014-09-17 17:24:00,
2014-09-17 10:33:00,82.0,45.0,-100.00,SW,234,5.0,-999.0,27,0.00,,,-99.99,,2014-09-17 17:33:00,
2014-09-17 10:43:00,82.0,45.0,-100.00,SW,234,5.0,-999.0,27,0.00,,,-99.99,,2014-09-17 17:43:00,
2014-09-17 10:53:00,82.0,45.0,-100.00,SW,234,5.0,-999.0,27,0.00,,,-99.99,,2014-09-17 17:53:00,
2014-09-17 11:00:00,86.0,47.0,-100.00,South,191,5.0,-999.0,25,0.00,,,-99.99,,2014-09-17 18:00:00,
2014-09-17 11:23:00,86.0,47.0,-100.00,South,191,5.0,-999.0,25,0.00,,,-99.99,,2014-09-17 18:23:00,
2014-09-17 11:32:00,86.0,47.0,-100.00,South,191,5.0,-999.0,25,0.00,,,-99.99,,2014-09-17 18:32:00,
2014-09-17 11:42:00,86.0,47.0,-100.00,South,191,5.0,-999.0,25,0.00,,,-99.99,,2014-09-17 18:42:00,
2014-09-17 11:52:00,86.0,47.0,-100.00,South,191,5.0,-999.0,25,0.00,,,-99.99,,2014-09-17 18:52:00,
2014-09-17 12:00:00,89.0,46.0,-100.00,WSW,243,1.0,-999.0,22,0.00,,,-99.99,,2014-09-17 19:00:00,
2014-09-17 12:22:00,89.0,46.0,-100.00,WSW,243,1.0,-999.0,22,0.00,,,-99.99,,2014-09-17 19:22:00,
2014-09-17 12:32:00,89.0,46.0,-100.00,WSW,243,1.0,-999.0,22,0.00,,,-99.99,,2014-09-17 19:32:00,
2014-09-17 12:42:00,89.0,46.0,-100.00,WSW,243,1.0,-999.0,22,0.00,,,-99.99,,2014-09-17 19:42:00,
2014-09-17 12:52:00,89.0,46.0,-100.00,WSW,243,1.0,-999.0,22,0.00,,,-99.99,,2014-09-17 19:52:00,
2014-09-17 13:00:00,91.0,44.0,-100.00,NW,311,4.0,-999.0,19,0.00,,,-99.99,,2014-09-17 20:00:00,
2014-09-17 13:23:00,91.0,44.0,-100.00,NW,311,4.0,-999.0,19,0.00,,,-99.99,,2014-09-17 20:23:00,
2014-09-17 13:33:00,91.0,44.0,-100.00,NW,311,4.0,-999.0,19,0.00,,,-99.99,,2014-09-17 20:33:00,
2014-09-17 13:42:00,91.0,44.0,-100.00,NW,311,4.0,-999.0,19,0.00,,,-99.99,,2014-09-17 20:42:00,
2014-09-17 13:52:00,91.0,44.0,-100.00,NW,311,4.0,-999.0,19,0.00,,,-99.99,,2014-09-17 20:52:00,